createdAt,value
2018-09-28T00:00:48.391Z,5.90
2018-09-28T00:03:22.969Z,5.20
2018-09-28T00:05:57.496Z,6.00
2018-09-28T00:08:31.818Z,5.53
2018-09-28T00:11:07.328Z,5.50
2018-09-28T00:13:42.104Z,5.20
2018-09-28T00:16:16.552Z,5.87
2018-09-28T00:18:51.189Z,5.67
2018-09-28T00:21:26.463Z,6.90
2018-09-28T00:24:01.411Z,5.57
2018-09-28T00:26:35.980Z,5.50
2018-09-28T00:29:11.545Z,6.23
2018-09-28T00:31:46.741Z,5.80
2018-09-28T00:34:21.447Z,5.70
2018-09-28T00:36:55.888Z,5.90
2018-09-28T00:39:30.928Z,5.60
2018-09-28T00:42:07.398Z,5.67
2018-09-28T00:44:42.077Z,5.67
2018-09-28T00:47:16.494Z,5.93
2018-09-28T00:49:50.795Z,5.57
2018-09-28T00:52:25.255Z,5.33
2018-09-28T00:54:59.552Z,4.97
2018-09-28T00:57:34.401Z,5.13
2018-09-28T01:00:09.092Z,5.67
2018-09-28T01:02:44.111Z,5.50
2018-09-28T01:05:18.719Z,5.40
2018-09-28T01:07:53.736Z,5.87
2018-09-28T01:10:28.179Z,5.17
2018-09-28T01:13:02.657Z,5.43
2018-09-28T01:15:36.971Z,5.23
2018-09-28T01:18:11.495Z,5.43
2018-09-28T01:20:45.796Z,5.20
2018-09-28T01:23:20.688Z,5.70
2018-09-28T01:25:55.599Z,5.53
2018-09-28T01:28:30.087Z,5.20
2018-09-28T01:31:05.083Z,5.27
2018-09-28T01:33:39.713Z,5.20
2018-09-28T01:36:14.188Z,5.03
2018-09-28T01:38:49.332Z,5.70
2018-09-28T01:41:23.688Z,5.57
2018-09-28T01:43:58.158Z,5.80
2018-09-28T01:46:32.885Z,6.07
2018-09-28T01:49:07.555Z,5.07
2018-09-28T01:51:42.456Z,5.80
2018-09-28T01:54:17.092Z,5.70
2018-09-28T01:56:51.681Z,5.20
2018-09-28T01:59:26.216Z,5.00
2018-09-28T02:02:00.556Z,5.30
2018-09-28T02:04:35.154Z,4.90
2018-09-28T02:07:09.580Z,4.67
2018-09-28T02:09:44.247Z,4.90
2018-09-28T02:12:19.004Z,4.70
2018-09-28T02:14:54.418Z,4.87
2018-09-28T02:17:29.093Z,5.53
2018-09-28T02:20:03.712Z,4.83
2018-09-28T02:22:39.021Z,5.03
2018-09-28T02:25:13.955Z,4.70
2018-09-28T02:27:48.385Z,5.20
2018-09-28T02:30:23.115Z,5.60
2018-09-28T02:32:57.845Z,5.60
2018-09-28T02:35:32.715Z,4.53
2018-09-28T02:38:07.181Z,4.60
2018-09-28T02:40:41.859Z,4.93
2018-09-28T02:43:16.917Z,5.07
2018-09-28T02:45:51.407Z,5.03
2018-09-28T02:48:25.847Z,4.30
2018-09-28T02:51:00.259Z,4.40
2018-09-28T02:53:34.733Z,5.40
2018-09-28T02:56:09.484Z,4.63
2018-09-28T02:58:44.330Z,4.83
2018-09-28T03:01:18.860Z,5.00
2018-09-28T03:03:53.270Z,4.77
2018-09-28T03:06:27.854Z,4.47
2018-09-28T03:09:02.504Z,6.43
2018-09-28T03:11:36.829Z,5.07
2018-09-28T03:14:11.135Z,4.93
2018-09-28T03:16:45.417Z,4.40
2018-09-28T03:19:19.923Z,5.00
2018-09-28T03:21:54.377Z,4.60
2018-09-28T03:24:28.709Z,4.80
2018-09-28T03:27:03.183Z,4.80
2018-09-28T03:29:38.402Z,4.67
2018-09-28T03:32:14.379Z,4.70
2018-09-28T03:34:49.352Z,4.70
2018-09-28T03:37:23.736Z,5.10
2018-09-28T03:39:58.232Z,4.97
2018-09-28T03:42:32.913Z,4.43
2018-09-28T03:45:08.576Z,4.83
2018-09-28T03:47:45.505Z,4.50
2018-09-28T03:50:19.960Z,5.00
2018-09-28T03:52:54.772Z,4.67
2018-09-28T03:55:29.447Z,4.83
2018-09-28T03:58:04.219Z,4.53
2018-09-28T04:00:38.756Z,5.00
2018-09-28T04:03:13.072Z,4.67
2018-09-28T04:05:47.591Z,5.00
2018-09-28T04:08:22.503Z,5.00
2018-09-28T04:10:57.203Z,4.50
2018-09-28T04:13:31.998Z,4.60
2018-09-28T04:16:07.468Z,4.40
2018-09-28T04:18:42.171Z,4.67
2018-09-28T04:21:16.603Z,4.83
2018-09-28T04:23:51.421Z,5.10
2018-09-28T04:26:26.076Z,4.90
2018-09-28T04:29:00.651Z,5.30
2018-09-28T04:31:35.610Z,5.50
2018-09-28T04:34:10.249Z,5.37
2018-09-28T04:36:44.628Z,5.70
2018-09-28T04:39:19.310Z,5.33
2018-09-28T04:41:54.001Z,5.70
2018-09-28T04:44:28.708Z,5.60
2018-09-28T04:47:03.351Z,5.87
2018-09-28T04:49:38.263Z,5.43
2018-09-28T04:52:12.698Z,5.73
2018-09-28T04:54:47.135Z,5.00
2018-09-28T04:57:21.436Z,5.20
2018-09-28T04:59:56.108Z,5.40
2018-09-28T05:02:30.899Z,4.87
2018-09-28T05:05:05.240Z,5.00
2018-09-28T05:07:39.732Z,5.30
2018-09-28T05:10:14.688Z,5.47
2018-09-28T05:12:48.972Z,5.23
2018-09-28T05:15:23.672Z,5.30
2018-09-28T05:17:58.455Z,5.50
2018-09-28T05:20:32.773Z,5.13
2018-09-28T05:23:07.209Z,5.03
2018-09-28T05:25:41.856Z,5.10
2018-09-28T05:28:16.332Z,5.80
2018-09-28T05:30:53.968Z,5.20
2018-09-28T05:33:25.624Z,4.90
2018-09-28T05:36:00.057Z,6.40
2018-09-28T05:38:34.817Z,5.03
2018-09-28T05:41:09.869Z,5.43
2018-09-28T05:43:44.331Z,5.47
2018-09-28T05:46:19.326Z,5.83
2018-09-28T05:48:53.939Z,5.70
2018-09-28T05:51:28.785Z,5.40
2018-09-28T05:54:03.833Z,6.57
2018-09-28T05:56:38.116Z,6.40
2018-09-28T05:59:18.274Z,9.30
2018-09-28T06:01:57.948Z,8.30
2018-09-28T06:04:37.584Z,8.80
2018-09-28T06:07:12.149Z,7.23
2018-09-28T06:09:47.439Z,8.67
2018-09-28T06:12:21.763Z,8.63
2018-09-28T06:14:57.453Z,8.03
2018-09-28T06:17:32.347Z,9.23
2018-09-28T06:20:07.313Z,8.00
2018-09-28T06:22:42.045Z,8.53
2018-09-28T06:25:16.533Z,8.23
2018-09-28T06:27:51.603Z,9.57
2018-09-28T06:30:25.924Z,7.93
2018-09-28T06:33:00.387Z,10.00
2018-09-28T06:35:35.274Z,8.73
2018-09-28T06:38:09.892Z,9.43
2018-09-28T06:40:45.104Z,11.70
2018-09-28T06:43:19.448Z,8.03
2018-09-28T06:45:54.738Z,10.20
2018-09-28T06:48:29.201Z,7.97
2018-09-28T06:51:03.915Z,8.83
2018-09-28T06:53:38.426Z,9.80
2018-09-28T06:56:13.260Z,8.40
2018-09-28T06:58:48.719Z,7.93
2018-09-28T07:01:23.415Z,12.77
2018-09-28T07:03:57.930Z,9.00
2018-09-28T07:06:33.171Z,7.33
2018-09-28T07:09:10.403Z,9.90
2018-09-28T07:11:45.637Z,9.50
2018-09-28T07:14:20.179Z,8.70
2018-09-28T07:16:54.569Z,7.83
2018-09-28T07:19:29.151Z,6.53
2018-09-28T07:22:03.457Z,8.33
2018-09-28T07:24:37.798Z,7.67
2018-09-28T07:27:12.516Z,5.93
2018-09-28T07:29:46.837Z,5.83
2018-09-28T07:32:21.648Z,9.03
2018-09-28T07:34:56.556Z,7.80
2018-09-28T07:37:31.027Z,6.90
2018-09-28T07:40:05.831Z,8.27
2018-09-28T07:42:40.171Z,8.87
2018-09-28T07:45:14.918Z,10.30
2018-09-28T07:47:50.359Z,6.83
2018-09-28T07:50:25.140Z,6.60
2018-09-28T07:52:59.471Z,9.37
2018-09-28T07:55:33.954Z,5.80
2018-09-28T07:58:08.471Z,6.40
2018-09-28T08:00:43.150Z,6.83
2018-09-28T08:03:17.619Z,5.37
2018-09-28T08:05:52.054Z,5.93
2018-09-28T08:08:26.935Z,5.07
2018-09-28T08:11:01.399Z,7.03
2018-09-28T08:13:36.047Z,7.03
2018-09-28T08:16:10.880Z,11.57
2018-09-28T08:18:45.336Z,5.83
2018-09-28T08:21:20.011Z,7.13
2018-09-28T08:23:54.472Z,11.33
2018-09-28T08:26:29.244Z,5.67
2018-09-28T08:29:04.422Z,7.57
2018-09-28T08:31:38.972Z,6.40
2018-09-28T08:34:13.640Z,8.80
2018-09-28T08:36:48.691Z,7.17
2018-09-28T08:39:23.293Z,9.20
2018-09-28T08:41:57.826Z,7.70
2018-09-28T08:44:32.416Z,7.80
2018-09-28T08:47:07.479Z,6.80
2018-09-28T08:49:42.032Z,8.30
2018-09-28T08:52:17.156Z,6.27
2018-09-28T08:54:51.664Z,8.20
2018-09-28T08:57:26.399Z,8.43
2018-09-28T09:00:00.838Z,9.37
2018-09-28T09:02:35.996Z,9.23
2018-09-28T09:05:10.505Z,12.93
2018-09-28T09:07:45.008Z,8.47
2018-09-28T09:10:19.739Z,6.90
2018-09-28T09:12:54.176Z,7.60
2018-09-28T09:15:29.104Z,10.50
2018-09-28T09:18:04.087Z,10.43
2018-09-28T09:20:38.982Z,9.53
2018-09-28T09:23:13.488Z,6.50
2018-09-28T09:25:48.215Z,7.80
2018-09-28T09:28:22.819Z,6.90
2018-09-28T09:30:57.151Z,7.03
2018-09-28T09:33:31.851Z,6.43
2018-09-28T09:36:06.675Z,6.53
2018-09-28T09:38:41.028Z,8.20
2018-09-28T09:41:15.464Z,5.03
2018-09-28T09:43:49.922Z,6.70
2018-09-28T09:46:24.711Z,9.07
2018-09-28T09:48:59.144Z,42.87
2018-09-28T09:51:34.043Z,25.00
2018-09-28T09:54:09.242Z,18.37
2018-09-28T09:56:53.056Z,10.37
2018-09-28T09:59:27.560Z,10.13
2018-09-28T10:02:07.484Z,6.17
2018-09-28T10:04:42.115Z,12.50
2018-09-28T10:07:16.571Z,7.80
2018-09-28T10:09:51.023Z,6.50
2018-09-28T10:12:26.069Z,6.40
2018-09-28T10:15:01.111Z,7.83
2018-09-28T10:17:35.531Z,7.03
2018-09-28T10:20:10.203Z,6.63
2018-09-28T10:22:44.723Z,7.73
2018-09-28T10:25:19.629Z,7.57
2018-09-28T10:27:54.539Z,5.27
2018-09-28T10:30:29.250Z,6.70
2018-09-28T10:33:04.077Z,6.40
2018-09-28T10:35:38.576Z,5.80
2018-09-28T10:38:13.393Z,5.87
2018-09-28T10:40:47.871Z,4.13
2018-09-28T10:43:22.511Z,6.00
2018-09-28T10:45:57.313Z,4.40
2018-09-28T10:48:31.629Z,4.30
2018-09-28T10:51:06.759Z,5.73
2018-09-28T10:53:54.842Z,4.60
2018-09-28T10:56:34.677Z,5.80
2018-09-28T10:59:09.341Z,7.27
2018-09-28T11:01:44.029Z,5.80
2018-09-28T11:04:18.917Z,5.37
2018-09-28T11:06:53.711Z,6.67
2018-09-28T11:09:28.332Z,8.73
2018-09-28T11:12:03.108Z,7.30
2018-09-28T11:14:37.521Z,5.07
2018-09-28T11:17:11.955Z,7.43
2018-09-28T11:19:46.691Z,6.40
2018-09-28T11:22:21.098Z,8.00
2018-09-28T11:24:55.804Z,5.77
2018-09-28T11:27:30.207Z,8.30
2018-09-28T11:30:05.616Z,5.93
2018-09-28T11:32:40.156Z,6.80
2018-09-28T11:35:14.864Z,5.33
2018-09-28T11:37:49.497Z,5.57
2018-09-28T11:40:24.539Z,4.33
2018-09-28T11:42:59.261Z,4.93
2018-09-28T11:45:33.688Z,6.23
2018-09-28T11:48:08.685Z,6.00
2018-09-28T11:50:43.165Z,7.00
2018-09-28T11:53:17.625Z,6.90
2018-09-28T11:55:52.039Z,7.30
2018-09-28T11:58:26.389Z,6.23
2018-09-28T12:01:01.401Z,4.63
2018-09-28T12:03:36.281Z,8.23
2018-09-28T12:06:11.048Z,5.33
2018-09-28T12:08:46.002Z,5.67
2018-09-28T12:11:20.759Z,5.23
2018-09-28T12:13:58.543Z,8.50
2018-09-28T12:16:33.254Z,7.00
2018-09-28T12:19:08.335Z,5.60
2018-09-28T12:21:42.832Z,4.93
2018-09-28T12:24:19.934Z,5.70
2018-09-28T12:26:54.719Z,6.20
2018-09-28T12:29:29.447Z,5.67
2018-09-28T12:32:04.557Z,5.77
2018-09-28T12:34:38.994Z,6.00
2018-09-28T12:37:14.212Z,6.07
2018-09-28T12:39:48.809Z,9.10
2018-09-28T12:42:24.861Z,7.13
2018-09-28T12:44:59.605Z,4.60
2018-09-28T12:47:34.367Z,5.00
2018-09-28T12:50:09.070Z,6.10
2018-09-28T12:52:43.656Z,4.40
2018-09-28T12:55:18.445Z,6.67
2018-09-28T12:57:53.409Z,6.07
2018-09-28T13:00:29.068Z,8.10
2018-09-28T13:03:03.887Z,5.63
2018-09-28T13:05:38.436Z,6.27
2018-09-28T13:08:12.900Z,10.47
2018-09-28T13:10:48.183Z,7.40
2018-09-28T13:13:23.371Z,7.40
2018-09-28T13:15:58.280Z,10.67
2018-09-28T13:18:32.961Z,7.13
2018-09-28T13:21:08.006Z,7.17
2018-09-28T13:23:43.143Z,6.57
2018-09-28T13:26:18.219Z,8.60
2018-09-28T13:28:53.071Z,8.70
2018-09-28T13:31:27.475Z,6.40
2018-09-28T13:34:02.219Z,8.10
2018-09-28T13:36:37.171Z,5.97
2018-09-28T13:39:11.925Z,10.13
2018-09-28T13:41:46.896Z,5.83
2018-09-28T13:44:21.274Z,6.33
2018-09-28T13:46:56.660Z,10.43
2018-09-28T13:49:31.130Z,6.10
2018-09-28T13:52:06.025Z,4.97
2018-09-28T13:54:40.832Z,6.80
2018-09-28T13:57:16.605Z,6.17
2018-09-28T13:59:51.476Z,4.50
2018-09-28T14:02:26.248Z,5.53
2018-09-28T14:05:00.764Z,5.33
2018-09-28T14:07:35.330Z,7.73
2018-09-28T14:10:10.091Z,8.03
2018-09-28T14:12:44.806Z,8.47
2018-09-28T14:15:21.008Z,6.87
2018-09-28T14:17:55.461Z,7.03
2018-09-28T14:20:29.961Z,5.93
2018-09-28T14:23:05.016Z,6.67
2018-09-28T14:25:39.760Z,8.07
2018-09-28T14:28:14.647Z,6.67
2018-09-28T14:30:49.807Z,6.03
2018-09-28T14:33:24.532Z,5.63
2018-09-28T14:35:58.904Z,6.37
2018-09-28T14:38:34.026Z,5.63
2018-09-28T14:41:08.371Z,5.57
2018-09-28T14:43:43.072Z,6.03
2018-09-28T14:46:17.765Z,7.07
2018-09-28T14:48:52.893Z,7.37
2018-09-28T14:51:27.311Z,5.47
2018-09-28T14:54:01.844Z,7.73
2018-09-28T14:56:36.351Z,7.83
2018-09-28T14:59:11.256Z,5.00
2018-09-28T15:01:45.706Z,4.30
2018-09-28T15:04:20.153Z,8.27
2018-09-28T15:06:55.280Z,6.57
2018-09-28T15:09:29.837Z,6.03
2018-09-28T15:12:04.721Z,5.03
2018-09-28T15:14:39.316Z,6.70
2018-09-28T15:17:14.676Z,9.17
2018-09-28T15:19:49.492Z,12.23
2018-09-28T15:22:24.071Z,6.20
2018-09-28T15:24:58.767Z,6.13
2018-09-28T15:27:33.808Z,7.37
2018-09-28T15:30:09.301Z,6.50
2018-09-28T15:32:44.287Z,5.23
2018-09-28T15:35:18.924Z,5.70
2018-09-28T15:37:54.034Z,4.10
2018-09-28T15:40:30.489Z,5.93
2018-09-28T15:43:05.088Z,7.30
2018-09-28T15:45:39.951Z,6.43
2018-09-28T15:48:14.304Z,9.00
2018-09-28T15:50:48.776Z,5.03
2018-09-28T15:53:23.139Z,9.13
2018-09-28T15:55:57.420Z,9.23
2018-09-28T15:58:39.935Z,6.27
2018-09-28T16:01:14.499Z,9.00
2018-09-28T16:03:48.851Z,6.13
2018-09-28T16:06:23.968Z,8.87
2018-09-28T16:08:58.431Z,7.20
2018-09-28T16:11:32.917Z,6.77
2018-09-28T16:14:07.626Z,3.67
2018-09-28T16:16:43.969Z,7.30
2018-09-28T16:19:18.765Z,4.73
2018-09-28T16:21:57.453Z,6.10
2018-09-28T16:24:33.044Z,7.90
2018-09-28T16:27:08.472Z,6.57
2018-09-28T16:29:42.995Z,7.53
2018-09-28T16:32:18.219Z,4.43
2018-09-28T16:34:52.855Z,5.37
2018-09-28T16:37:27.606Z,6.17
2018-09-28T16:40:02.471Z,5.43
2018-09-28T16:42:36.988Z,6.67
2018-09-28T16:45:11.441Z,5.60
2018-09-28T16:47:46.267Z,4.83
2018-09-28T16:50:20.808Z,4.87
2018-09-28T16:52:55.130Z,4.03
2018-09-28T16:55:29.844Z,6.03
2018-09-28T16:58:04.763Z,5.57
2018-09-28T17:00:39.421Z,5.57
2018-09-28T17:03:13.956Z,4.73
2018-09-28T17:05:48.626Z,4.73
2018-09-28T17:08:23.357Z,3.53
2018-09-28T17:10:58.044Z,6.33
2018-09-28T17:13:32.545Z,6.43
2018-09-28T17:16:07.057Z,5.30
2018-09-28T17:18:41.425Z,4.90
2018-09-28T17:21:16.189Z,6.27
2018-09-28T17:23:50.804Z,5.57
2018-09-28T17:26:25.352Z,6.13
2018-09-28T17:28:59.696Z,7.53
2018-09-28T17:31:34.116Z,7.60
2018-09-28T17:34:08.943Z,5.93
2018-09-28T17:36:43.645Z,5.73
2018-09-28T17:39:18.089Z,5.20
2018-09-28T17:41:52.435Z,5.40
2018-09-28T17:44:27.140Z,5.33
2018-09-28T17:47:01.528Z,7.00
2018-09-28T17:49:36.753Z,6.70
2018-09-28T17:52:11.452Z,7.03
2018-09-28T17:54:46.016Z,5.20
2018-09-28T17:57:20.891Z,8.30
2018-09-28T17:59:55.308Z,8.63
2018-09-28T18:02:29.709Z,9.97
2018-09-28T18:05:04.895Z,7.50
2018-09-28T18:07:39.408Z,5.30
2018-09-28T18:10:13.841Z,9.43
2018-09-28T18:12:48.403Z,6.73
2018-09-28T18:15:22.720Z,8.83
2018-09-28T18:17:57.475Z,7.93
2018-09-28T18:20:32.144Z,5.70
2018-09-28T18:23:06.849Z,6.20
2018-09-28T18:25:44.428Z,5.03
2018-09-28T18:28:19.111Z,8.70
2018-09-28T18:30:54.020Z,8.20
2018-09-28T18:33:28.500Z,6.63
2018-09-28T18:36:03.218Z,5.83
2018-09-28T18:38:37.707Z,7.77
2018-09-28T18:41:13.607Z,7.77
2018-09-28T18:43:48.913Z,7.97
2018-09-28T18:46:23.745Z,6.87
2018-09-28T18:48:58.189Z,7.90
2018-09-28T18:51:32.988Z,9.23
2018-09-28T18:54:07.368Z,8.93
2018-09-28T18:56:42.408Z,7.17
2018-09-28T18:59:17.220Z,6.87
2018-09-28T19:01:51.732Z,7.20
2018-09-28T19:04:26.987Z,7.13
2018-09-28T19:07:01.661Z,6.30
2018-09-28T19:09:36.125Z,9.63
2018-09-28T19:12:11.699Z,10.00
2018-09-28T19:14:46.236Z,9.47
2018-09-28T19:17:21.024Z,7.03
2018-09-28T19:19:55.631Z,7.80
2018-09-28T19:22:30.351Z,8.33
2018-09-28T19:25:05.648Z,7.03
2018-09-28T19:27:40.000Z,7.70
2018-09-28T19:30:14.668Z,7.50
2018-09-28T19:32:49.284Z,7.70
2018-09-28T19:35:23.676Z,10.30
2018-09-28T19:37:58.191Z,7.70
2018-09-28T19:40:32.596Z,9.20
2018-09-28T19:43:07.008Z,8.17
2018-09-28T19:45:41.431Z,10.43
2018-09-28T19:48:15.928Z,8.30
2018-09-28T19:50:50.544Z,9.20
2018-09-28T19:53:25.727Z,9.60
2018-09-28T19:56:00.204Z,8.40
2018-09-28T19:58:35.117Z,9.47
2018-09-28T20:01:09.552Z,9.23
2018-09-28T20:03:44.269Z,11.90
2018-09-28T20:06:20.693Z,11.60
2018-09-28T20:08:55.527Z,10.07
2018-09-28T20:11:31.092Z,10.10
2018-09-28T20:14:05.449Z,11.33
2018-09-28T20:16:39.741Z,9.77
2018-09-28T20:19:14.580Z,11.23
2018-09-28T20:21:49.240Z,12.80
2018-09-28T20:24:23.849Z,8.30
2018-09-28T20:26:58.644Z,9.27
2018-09-28T20:29:34.831Z,12.27
2018-09-28T20:32:09.669Z,8.73
2018-09-28T20:34:43.960Z,10.33
2018-09-28T20:37:18.301Z,9.13
2018-09-28T20:40:00.070Z,8.90
2018-09-28T20:42:35.992Z,12.13
2018-09-28T20:45:10.852Z,11.93
2018-09-28T20:47:45.324Z,9.23
2018-09-28T20:50:19.823Z,9.90
2018-09-28T20:52:54.535Z,11.27
2018-09-28T20:55:29.112Z,10.27
2018-09-28T20:58:03.745Z,11.37
2018-09-28T21:00:38.556Z,10.07
2018-09-28T21:03:12.927Z,9.57
2018-09-28T21:05:47.715Z,10.20
2018-09-28T21:08:22.383Z,11.37
2018-09-28T21:10:57.443Z,9.33
2018-09-28T21:13:31.914Z,8.83
2018-09-28T21:16:06.872Z,8.73
2018-09-28T21:18:44.603Z,8.80
2018-09-28T21:21:19.368Z,8.53
2018-09-28T21:23:54.098Z,8.73
2018-09-28T21:26:28.691Z,8.70
2018-09-28T21:29:03.306Z,10.23
2018-09-28T21:31:38.213Z,8.97
2018-09-28T21:34:12.812Z,8.40
2018-09-28T21:36:47.340Z,7.37
2018-09-28T21:39:21.748Z,7.03
2018-09-28T21:41:56.455Z,6.90
2018-09-28T21:44:31.311Z,7.03
2018-09-28T21:47:05.679Z,6.97
2018-09-28T21:49:40.116Z,6.97
2018-09-28T21:52:14.411Z,6.23
2018-09-28T21:54:48.673Z,7.27
2018-09-28T21:57:23.404Z,6.00
2018-09-28T21:59:58.262Z,9.00
2018-09-28T22:02:32.573Z,6.70
2018-09-28T22:05:07.774Z,5.90
2018-09-28T22:07:42.187Z,6.87
2018-09-28T22:10:17.005Z,6.57
2018-09-28T22:12:51.723Z,10.20
2018-09-28T22:15:26.862Z,5.67
2018-09-28T22:18:01.845Z,7.10
2018-09-28T22:20:36.467Z,5.87
2018-09-28T22:23:10.799Z,5.20
2018-09-28T22:25:45.108Z,5.60
2018-09-28T22:28:19.578Z,5.80
2018-09-28T22:30:54.392Z,6.27
2018-09-28T22:33:28.948Z,6.27
2018-09-28T22:36:04.270Z,5.67
2018-09-28T22:38:38.811Z,6.40
2018-09-28T22:41:13.294Z,6.03
2018-09-28T22:43:48.225Z,5.70
2018-09-28T22:46:22.856Z,5.77
2018-09-28T22:48:59.547Z,6.37
2018-09-28T22:51:33.972Z,6.30
2018-09-28T22:54:08.299Z,6.77
2018-09-28T22:56:43.473Z,6.97
2018-09-28T22:59:17.992Z,7.10
2018-09-28T23:01:52.492Z,7.20
2018-09-28T23:04:27.028Z,7.07
2018-09-28T23:07:01.885Z,8.47
2018-09-28T23:09:36.266Z,7.03
2018-09-28T23:12:10.721Z,7.37
2018-09-28T23:14:45.272Z,7.50
2018-09-28T23:17:19.697Z,7.90
2018-09-28T23:19:54.396Z,7.93
2018-09-28T23:22:28.975Z,8.53
2018-09-28T23:25:03.692Z,8.57
2018-09-28T23:27:38.092Z,8.80
2018-09-28T23:30:12.597Z,8.80
2018-09-28T23:32:47.340Z,8.77
2018-09-28T23:35:22.100Z,8.43
2018-09-28T23:37:56.455Z,9.43
2018-09-28T23:40:30.943Z,9.90
2018-09-28T23:43:05.696Z,10.57
2018-09-28T23:45:40.157Z,10.53
2018-09-28T23:48:14.567Z,11.43
2018-09-28T23:50:49.256Z,10.50
2018-09-28T23:53:23.753Z,10.23
2018-09-28T23:55:58.180Z,11.80
2018-09-28T23:58:32.940Z,10.93
